No particular awareness of the weather is required.    There are no Weather-warnings


Meteo18 Weather Cam more information Meteo18 Weather Cam


Thunder radar more information blitzortung!


Rain radar more information rain snow radar


Visit our other weather sites:

Template documentation
and downloads

And another site



Weather Underground History page Text

Daily Summary for August 24, 2017 Units:  Metric    English   Both
« Previous Day
Next Day »
Daily Weekly Monthly Yearly Custom
  High: Low: Average:
Temperature: 29.3 °C 15.4 °C 22 °C
Dew Point: 19.2 °C 14.4 °C 17 °C
Humidity: 96 % 49 % 75 %
Wind Speed: 14.5 km/h 0.0 km/h 2.8 km/h
Wind Gust: 22.5 km/h - -
Wind:- - SE
Pressure: 1019.2 hPa 1016.1 hPa -
Precipitation: 0.0 mm    
Historical Graphs
 
 
Tabular Data for August 24, 2017
Time Temperature Dew Point Pressure Wind Wind Speed Wind Gust Humidity Rainfall Rate (Hourly)
00:02 18.6 °C 16.2 °C 1018.8 hPa Calm   1.6 km/h 86 % 0.0 mm
00:07 18.4 °C 16.0 °C 1018.8 hPa Calm   3.2 km/h 86 % 0.0 mm
00:12 18.4 °C 16.2 °C 1018.8 hPa Calm   3.2 km/h 87 % 0.0 mm
00:17 18.3 °C 16.1 °C 1018.8 hPa Calm   1.6 km/h 87 % 0.0 mm
00:22 18.2 °C 16.2 °C 1018.8 hPa Calm     88 % 0.0 mm
00:27 18.0 °C 16.0 °C 1018.8 hPa Calm     88 % 0.0 mm
00:32 17.9 °C 16.1 °C 1018.8 hPa Calm     89 % 0.0 mm
00:37 17.8 °C 16.0 °C 1018.8 hPa Calm     89 % 0.0 mm
00:42 17.7 °C 15.9 °C 1018.8 hPa Calm     89 % 0.0 mm
00:52 17.7 °C 15.9 °C 1018.8 hPa Calm     89 % 0.0 mm
00:57 17.6 °C 15.9 °C 1018.8 hPa WNW 3.2 km/h   90 % 0.0 mm
01:02 17.6 °C 15.9 °C 1018.8 hPa Calm     90 % 0.0 mm
01:07 17.6 °C 15.9 °C 1018.8 hPa WNW 1.6 km/h 3.2 km/h 90 % 0.0 mm
01:12 17.6 °C 15.9 °C 1018.8 hPa WNW 1.6 km/h 3.2 km/h 90 % 0.0 mm
01:17 17.6 °C 16.1 °C 1018.8 hPa WNW 1.6 km/h 3.2 km/h 91 % 0.0 mm
01:22 17.4 °C 15.9 °C 1018.8 hPa WNW 3.2 km/h 3.2 km/h 91 % 0.0 mm
01:32 17.2 °C 15.7 °C 1018.8 hPa Calm   3.2 km/h 91 % 0.0 mm
01:37 17.2 °C 15.9 °C 1018.8 hPa Calm   3.2 km/h 92 % 0.0 mm
01:42 17.2 °C 15.9 °C 1018.8 hPa Calm   3.2 km/h 92 % 0.0 mm
01:47 17.2 °C 15.9 °C 1018.8 hPa Calm   1.6 km/h 92 % 0.0 mm
01:52 17.2 °C 16.1 °C 1018.8 hPa NW 1.6 km/h 1.6 km/h 93 % 0.0 mm
01:57 17.4 °C 16.1 °C 1018.8 hPa North 3.2 km/h 3.2 km/h 92 % 0.0 mm
02:02 17.5 °C 16.0 °C 1018.5 hPa NNW 1.6 km/h 3.2 km/h 91 % 0.0 mm
02:07 17.4 °C 15.9 °C 1018.5 hPa NNW 4.8 km/h 4.8 km/h 91 % 0.0 mm
02:12 17.4 °C 15.9 °C 1018.5 hPa NW 1.6 km/h 4.8 km/h 91 % 0.0 mm
02:17 17.4 °C 15.9 °C 1018.5 hPa WNW 1.6 km/h 4.8 km/h 91 % 0.0 mm
02:22 17.2 °C 15.7 °C 1018.5 hPa WNW 1.6 km/h 4.8 km/h 91 % 0.0 mm
02:27 17.2 °C 15.9 °C 1018.5 hPa Calm   3.2 km/h 92 % 0.0 mm
02:32 17.2 °C 15.7 °C 1018.5 hPa Calm   3.2 km/h 91 % 0.0 mm
02:37 17.2 °C 15.7 °C 1018.5 hPa Calm   3.2 km/h 91 % 0.0 mm
02:42 17.1 °C 15.6 °C 1018.5 hPa WNW 1.6 km/h 3.2 km/h 91 % 0.0 mm
02:47 16.9 °C 15.6 °C 1018.5 hPa NW 1.6 km/h 1.6 km/h 92 % 0.0 mm
02:52 17.0 °C 15.7 °C 1018.5 hPa NW 1.6 km/h 1.6 km/h 92 % 0.0 mm
02:57 17.1 °C 15.8 °C 1018.5 hPa Calm   3.2 km/h 92 % 0.0 mm
03:02 17.0 °C 15.5 °C 1018.5 hPa Calm   3.2 km/h 91 % 0.0 mm
03:12 16.9 °C 15.6 °C 1018.5 hPa Calm   3.2 km/h 92 % 0.0 mm
03:17 16.9 °C 15.6 °C 1018.5 hPa Calm   1.6 km/h 92 % 0.0 mm
03:22 16.9 °C 15.6 °C 1018.5 hPa Calm   1.6 km/h 92 % 0.0 mm
03:27 16.9 °C 15.6 °C 1018.5 hPa Calm   1.6 km/h 92 % 0.0 mm
03:32 16.8 °C 15.5 °C 1018.5 hPa Calm   1.6 km/h 92 % 0.0 mm
03:37 16.7 °C 15.4 °C 1018.5 hPa Calm     92 % 0.0 mm
03:42 16.7 °C 15.4 °C 1018.5 hPa Calm     92 % 0.0 mm
03:52 16.7 °C 15.6 °C 1018.5 hPa Calm     93 % 0.0 mm
03:57 16.6 °C 15.5 °C 1018.5 hPa Calm     93 % 0.0 mm
04:02 16.4 °C 15.1 °C 1018.8 hPa Calm     92 % 0.0 mm
04:07 16.2 °C 14.9 °C 1018.5 hPa Calm     92 % 0.0 mm
04:12 15.8 °C 14.5 °C 1018.5 hPa Calm     92 % 0.0 mm
04:17 15.7 °C 14.6 °C 1018.5 hPa Calm     93 % 0.0 mm
04:22 15.7 °C 14.6 °C 1018.5 hPa Calm     93 % 0.0 mm
04:32 15.7 °C 14.6 °C 1018.5 hPa Calm     93 % 0.0 mm
04:42 15.5 °C 14.5 °C 1018.5 hPa Calm     94 % 0.0 mm
04:47 15.4 °C 14.4 °C 1018.5 hPa Calm   1.6 km/h 94 % 0.0 mm
04:52 15.4 °C 14.4 °C 1018.8 hPa North 1.6 km/h 1.6 km/h 94 % 0.0 mm
04:57 15.7 °C 14.9 °C 1018.8 hPa Calm   6.4 km/h 95 % 0.0 mm
05:02 15.7 °C 14.7 °C 1018.8 hPa Calm   6.4 km/h 94 % 0.0 mm
05:12 15.4 °C 14.4 °C 1018.5 hPa Calm   3.2 km/h 94 % 0.0 mm
05:17 15.4 °C 14.4 °C 1018.5 hPa Calm     94 % 0.0 mm
05:22 15.4 °C 14.6 °C 1018.5 hPa Calm     95 % 0.0 mm
05:32 15.5 °C 14.7 °C 1018.5 hPa Calm     95 % 0.0 mm
05:42 15.6 °C 14.8 °C 1018.5 hPa Calm     95 % 0.0 mm
05:52 15.6 °C 14.8 °C 1018.2 hPa Calm   1.6 km/h 95 % 0.0 mm
05:57 15.5 °C 14.7 °C 1018.2 hPa NNW 1.6 km/h 3.2 km/h 95 % 0.0 mm
06:02 15.4 °C 14.6 °C 1018.5 hPa North 1.6 km/h 3.2 km/h 95 % 0.0 mm
06:07 15.4 °C 14.6 °C 1018.5 hPa Calm   3.2 km/h 95 % 0.0 mm
06:12 15.4 °C 14.6 °C 1018.5 hPa Calm   3.2 km/h 95 % 0.0 mm
06:17 15.4 °C 14.6 °C 1018.5 hPa NNW 1.6 km/h 3.2 km/h 95 % 0.0 mm
06:22 15.4 °C 14.6 °C 1018.5 hPa Calm   3.2 km/h 95 % 0.0 mm
06:27 15.4 °C 14.6 °C 1018.5 hPa NNW 1.6 km/h 3.2 km/h 95 % 0.0 mm
06:32 15.4 °C 14.6 °C 1018.5 hPa North 1.6 km/h 3.2 km/h 95 % 0.0 mm
06:42 15.4 °C 14.6 °C 1018.5 hPa North 3.2 km/h 4.8 km/h 95 % 0.0 mm
06:47 15.4 °C 14.6 °C 1018.5 hPa Calm   4.8 km/h 95 % 0.0 mm
06:57 15.6 °C 14.8 °C 1018.5 hPa Calm   4.8 km/h 95 % 0.0 mm
07:02 15.5 °C 14.7 °C 1018.2 hPa Calm   6.4 km/h 95 % 0.0 mm
07:07 15.4 °C 14.6 °C 1018.2 hPa Calm   6.4 km/h 95 % 0.0 mm
07:12 15.6 °C 15.0 °C 1018.2 hPa North 3.2 km/h 6.4 km/h 96 % 0.0 mm
07:17 15.6 °C 15.0 °C 1018.2 hPa Calm   6.4 km/h 96 % 0.0 mm
07:27 15.7 °C 14.9 °C 1018.2 hPa NE 1.6 km/h 4.8 km/h 95 % 0.0 mm
07:32 15.8 °C 15.2 °C 1018.5 hPa Calm   4.8 km/h 96 % 0.0 mm
07:37 15.9 °C 15.3 °C 1018.2 hPa Calm   4.8 km/h 96 % 0.0 mm
07:42 16.1 °C 15.3 °C 1018.2 hPa Calm   6.4 km/h 95 % 0.0 mm
07:47 16.3 °C 15.5 °C 1018.5 hPa North 4.8 km/h 6.4 km/h 95 % 0.0 mm
07:52 16.4 °C 15.6 °C 1018.5 hPa North 1.6 km/h 6.4 km/h 95 % 0.0 mm
07:57 16.6 °C 15.8 °C 1018.5 hPa Calm   6.4 km/h 95 % 0.0 mm
08:02 16.7 °C 15.7 °C 1018.5 hPa Calm   4.8 km/h 94 % 0.0 mm
08:07 16.8 °C 15.8 °C 1018.8 hPa North 1.6 km/h 4.8 km/h 94 % 0.0 mm
08:12 16.9 °C 15.9 °C 1018.8 hPa NNW 1.6 km/h 6.4 km/h 94 % 0.0 mm
08:17 17.1 °C 16.0 °C 1018.8 hPa NW 1.6 km/h 6.4 km/h 93 % 0.0 mm
08:22 17.3 °C 16.2 °C 1018.8 hPa Calm   8.0 km/h 93 % 0.0 mm
08:27 17.4 °C 16.1 °C 1018.8 hPa North 4.8 km/h 8.0 km/h 92 % 0.0 mm
08:32 17.6 °C 16.1 °C 1018.8 hPa NNE 3.2 km/h 6.4 km/h 91 % 0.0 mm
08:37 17.7 °C 16.2 °C 1019.2 hPa NNE 1.6 km/h 6.4 km/h 91 % 0.0 mm
08:42 17.9 °C 16.2 °C 1019.2 hPa NNE 3.2 km/h 8.0 km/h 90 % 0.0 mm
08:47 18.1 °C 16.3 °C 1019.2 hPa NE 4.8 km/h 8.0 km/h 89 % 0.0 mm
08:52 18.2 °C 16.4 °C 1018.8 hPa NNW 3.2 km/h 6.4 km/h 89 % 0.0 mm
08:57 18.3 °C 16.3 °C 1018.8 hPa NE 4.8 km/h 6.4 km/h 88 % 0.0 mm
09:02 18.4 °C 16.4 °C 1018.8 hPa NNE 9.7 km/h 9.7 km/h 88 % 0.0 mm
09:07 18.6 °C 16.4 °C 1018.8 hPa NNW 4.8 km/h 9.7 km/h 87 % 0.0 mm
09:12 18.8 °C 16.6 °C 1018.8 hPa NE 4.8 km/h 11.3 km/h 87 % 0.0 mm
09:17 19.0 °C 16.8 °C 1018.8 hPa NNW 3.2 km/h 11.3 km/h 87 % 0.0 mm
09:22 19.3 °C 16.7 °C 1018.8 hPa NNE 4.8 km/h 11.3 km/h 85 % 0.0 mm
09:32 19.5 °C 16.7 °C 1018.8 hPa NE 9.7 km/h 11.3 km/h 84 % 0.0 mm
09:37 19.5 °C 16.7 °C 1018.8 hPa NE 9.7 km/h 11.3 km/h 84 % 0.0 mm
09:42 19.5 °C 16.9 °C 1019.2 hPa ENE 6.4 km/h 12.9 km/h 85 % 0.0 mm
09:47 19.5 °C 16.5 °C 1019.2 hPa East 9.7 km/h 12.9 km/h 83 % 0.0 mm
09:52 19.5 °C 16.9 °C 1019.2 hPa East 4.8 km/h 14.5 km/h 85 % 0.0 mm
09:57 19.7 °C 16.9 °C 1019.2 hPa East 6.4 km/h 14.5 km/h 84 % 0.0 mm
10:02 20.1 °C 17.5 °C 1019.2 hPa SE 3.2 km/h 14.5 km/h 85 % 0.0 mm
10:07 20.4 °C 17.2 °C 1019.2 hPa East 3.2 km/h 14.5 km/h 82 % 0.0 mm
10:12 20.3 °C 17.1 °C 1019.2 hPa East 6.4 km/h 11.3 km/h 82 % 0.0 mm
10:17 20.4 °C 17.2 °C 1019.2 hPa ENE 1.6 km/h 11.3 km/h 82 % 0.0 mm
10:22 20.6 °C 17.4 °C 1019.2 hPa SE 3.2 km/h 9.7 km/h 82 % 0.0 mm
10:27 20.8 °C 17.4 °C 1019.2 hPa East 4.8 km/h 9.7 km/h 81 % 0.0 mm
10:32 21.1 °C 17.5 °C 1019.2 hPa Calm   9.7 km/h 80 % 0.0 mm
10:37 21.1 °C 17.1 °C 1019.2 hPa ENE 6.4 km/h 9.7 km/h 78 % 0.0 mm
10:42 20.9 °C 17.3 °C 1019.2 hPa ENE 1.6 km/h 9.7 km/h 80 % 0.0 mm
10:47 21.3 °C 17.7 °C 1019.2 hPa SE 1.6 km/h 9.7 km/h 80 % 0.0 mm
10:52 21.4 °C 17.4 °C 1019.2 hPa ENE 4.8 km/h 9.7 km/h 78 % 0.0 mm
10:57 21.6 °C 17.6 °C 1019.2 hPa NE 1.6 km/h 9.7 km/h 78 % 0.0 mm
11:02 21.8 °C 17.6 °C 1019.2 hPa Calm   9.7 km/h 77 % 0.0 mm
11:07 22.3 °C 18.1 °C 1019.2 hPa Calm   9.7 km/h 77 % 0.0 mm
11:12 22.6 °C 17.7 °C 1019.2 hPa Calm   8.0 km/h 74 % 0.0 mm
11:17 23.0 °C 18.1 °C 1019.2 hPa East 1.6 km/h 8.0 km/h 74 % 0.0 mm
11:22 23.3 °C 18.2 °C 1019.2 hPa East 1.6 km/h 4.8 km/h 73 % 0.0 mm
11:27 23.5 °C 17.9 °C 1019.2 hPa ENE 6.4 km/h 6.4 km/h 71 % 0.0 mm
11:32 23.2 °C 18.1 °C 1019.2 hPa ENE 8.0 km/h 9.7 km/h 73 % 0.0 mm
11:37 23.7 °C 18.4 °C 1019.2 hPa East 6.4 km/h 9.7 km/h 72 % 0.0 mm
11:42 23.9 °C 18.3 °C 1019.2 hPa SSW 1.6 km/h 9.7 km/h 71 % 0.0 mm
11:47 24.3 °C 18.0 °C 1019.2 hPa Calm   9.7 km/h 68 % 0.0 mm
11:52 24.8 °C 18.5 °C 1019.2 hPa SE 1.6 km/h 8.0 km/h 68 % 0.0 mm
12:02 24.7 °C 18.2 °C 1019.2 hPa Calm   8.0 km/h 67 % 0.0 mm
12:07 25.1 °C 18.1 °C 1018.8 hPa ENE 3.2 km/h 8.0 km/h 65 % 0.0 mm
12:12 25.1 °C 18.3 °C 1018.8 hPa East 3.2 km/h 6.4 km/h 66 % 0.0 mm
12:17 24.7 °C 17.9 °C 1018.8 hPa East 1.6 km/h 6.4 km/h 66 % 0.0 mm
12:22 24.8 °C 18.0 °C 1018.8 hPa East 4.8 km/h 12.9 km/h 66 % 0.0 mm
12:32 24.7 °C 17.9 °C 1018.8 hPa NE 3.2 km/h 12.9 km/h 66 % 0.0 mm
12:37 24.9 °C 17.6 °C 1018.8 hPa ENE 4.8 km/h 12.9 km/h 64 % 0.0 mm
12:42 25.1 °C 17.3 °C 1018.5 hPa ENE 3.2 km/h 9.7 km/h 62 % 0.0 mm
12:47 25.2 °C 17.7 °C 1018.5 hPa ENE 6.4 km/h 9.7 km/h 63 % 0.0 mm
12:52 25.2 °C 18.2 °C 1018.5 hPa SSE 1.6 km/h 9.7 km/h 65 % 0.0 mm
13:02 25.5 °C 17.7 °C 1018.2 hPa ENE 6.4 km/h 11.3 km/h 62 % 0.0 mm
13:12 26.1 °C 17.7 °C 1018.2 hPa ENE 4.8 km/h 11.3 km/h 60 % 0.0 mm
13:17 26.0 °C 17.6 °C 1018.2 hPa ESE 3.2 km/h 11.3 km/h 60 % 0.0 mm
13:22 26.6 °C 18.2 °C 1018.2 hPa Calm   11.3 km/h 60 % 0.0 mm
13:32 26.6 °C 17.9 °C 1018.2 hPa East 1.6 km/h 8.0 km/h 59 % 0.0 mm
13:42 26.7 °C 17.7 °C 1017.8 hPa East 3.2 km/h 9.7 km/h 58 % 0.0 mm
13:47 26.9 °C 17.9 °C 1017.8 hPa ESE 3.2 km/h 11.3 km/h 58 % 0.0 mm
13:52 26.9 °C 17.9 °C 1017.8 hPa ENE 3.2 km/h 11.3 km/h 58 % 0.0 mm
13:57 26.9 °C 18.2 °C 1017.8 hPa ENE 9.7 km/h 11.3 km/h 59 % 0.0 mm
14:07 26.9 °C 17.9 °C 1017.8 hPa SW 6.4 km/h 16.1 km/h 58 % 0.0 mm
14:12 26.9 °C 17.9 °C 1017.8 hPa ENE 3.2 km/h 16.1 km/h 58 % 0.0 mm
14:17 26.9 °C 17.9 °C 1017.8 hPa ENE 8.0 km/h 14.5 km/h 58 % 0.0 mm
14:22 27.1 °C 17.6 °C 1017.8 hPa East 6.4 km/h 14.5 km/h 56 % 0.0 mm
14:32 27.4 °C 18.4 °C 1017.8 hPa SSE 8.0 km/h 14.5 km/h 58 % 0.0 mm
14:42 27.6 °C 18.0 °C 1017.8 hPa East 4.8 km/h 12.9 km/h 56 % 0.0 mm
14:47 27.7 °C 18.4 °C 1017.8 hPa ENE 3.2 km/h 14.5 km/h 57 % 0.0 mm
14:52 27.8 °C 17.9 °C 1017.5 hPa ESE 3.2 km/h 14.5 km/h 55 % 0.0 mm
14:57 28.4 °C 17.3 °C 1017.5 hPa SE 6.4 km/h 11.3 km/h 51 % 0.0 mm
15:02 28.7 °C 18.2 °C 1017.5 hPa Calm   11.3 km/h 53 % 0.0 mm
15:12 28.9 °C 18.1 °C 1017.5 hPa SW 8.0 km/h 8.0 km/h 52 % 0.0 mm
15:17 28.9 °C 18.4 °C 1017.5 hPa East 1.6 km/h 9.7 km/h 53 % 0.0 mm
15:22 28.8 °C 17.7 °C 1017.5 hPa SW 3.2 km/h 9.7 km/h 51 % 0.0 mm
15:32 28.7 °C 18.2 °C 1017.5 hPa Calm   9.7 km/h 53 % 0.0 mm
15:37 29.1 °C 18.5 °C 1017.2 hPa SSW 4.8 km/h 9.7 km/h 53 % 0.0 mm
15:42 29.2 °C 17.7 °C 1017.2 hPa Calm   9.7 km/h 50 % 0.0 mm
15:47 28.9 °C 17.1 °C 1017.2 hPa West 4.8 km/h 9.7 km/h 49 % 0.0 mm
15:52 28.6 °C 17.2 °C 1017.2 hPa WNW 1.6 km/h 9.7 km/h 50 % 0.0 mm
15:57 28.8 °C 17.7 °C 1017.2 hPa Calm   9.7 km/h 51 % 0.0 mm
16:02 29.1 °C 17.9 °C 1017.2 hPa East 1.6 km/h 9.7 km/h 51 % 0.0 mm
16:12 28.8 °C 18.6 °C 1017.2 hPa SE 1.6 km/h 8.0 km/h 54 % 0.0 mm
16:17 28.8 °C 18.0 °C 1017.2 hPa ESE 1.6 km/h 19.3 km/h 52 % 0.0 mm
16:22 28.5 °C 17.4 °C 1017.2 hPa ENE 6.4 km/h 19.3 km/h 51 % 0.0 mm
16:27 28.4 °C 17.9 °C 1017.2 hPa NE 3.2 km/h 12.9 km/h 53 % 0.0 mm
16:32 28.7 °C 17.9 °C 1017.2 hPa Calm   12.9 km/h 52 % 0.0 mm
16:37 28.7 °C 17.2 °C 1016.8 hPa NNW 3.2 km/h 11.3 km/h 50 % 0.0 mm
16:42 28.7 °C 17.6 °C 1016.8 hPa NE 8.0 km/h 11.3 km/h 51 % 0.0 mm
16:47 28.6 °C 17.8 °C 1016.8 hPa East 4.8 km/h 12.9 km/h 52 % 0.0 mm
16:52 28.6 °C 17.5 °C 1016.8 hPa East 1.6 km/h 12.9 km/h 51 % 0.0 mm
16:57 28.7 °C 18.2 °C 1016.8 hPa ESE 3.2 km/h 12.9 km/h 53 % 0.0 mm
17:02 28.8 °C 18.3 °C 1016.8 hPa Calm   12.9 km/h 53 % 0.0 mm
17:12 29.0 °C 18.5 °C 1016.8 hPa Calm   8.0 km/h 53 % 0.0 mm
17:17 29.2 °C 18.0 °C 1016.8 hPa ENE 1.6 km/h 9.7 km/h 51 % 0.0 mm
17:22 28.9 °C 18.4 °C 1016.8 hPa SSE 3.2 km/h 9.7 km/h 53 % 0.0 mm
17:32 29.2 °C 18.0 °C 1016.8 hPa Calm   11.3 km/h 51 % 0.0 mm
17:37 29.2 °C 18.3 °C 1016.8 hPa SW 3.2 km/h 11.3 km/h 52 % 0.0 mm
17:42 29.1 °C 18.2 °C 1016.5 hPa SSE 1.6 km/h 11.3 km/h 52 % 0.0 mm
17:47 29.2 °C 18.3 °C 1016.5 hPa Calm   11.3 km/h 52 % 0.0 mm
17:52 29.3 °C 18.4 °C 1016.8 hPa ESE 4.8 km/h 11.3 km/h 52 % 0.0 mm
18:02 28.9 °C 17.7 °C 1016.5 hPa South 3.2 km/h 9.7 km/h 51 % 0.0 mm
18:12 28.5 °C 18.0 °C 1016.5 hPa Calm   9.7 km/h 53 % 0.0 mm
18:17 28.6 °C 18.1 °C 1016.5 hPa ESE 3.2 km/h 8.0 km/h 53 % 0.0 mm
18:22 28.5 °C 17.7 °C 1016.5 hPa ESE 6.4 km/h 8.0 km/h 52 % 0.0 mm
18:32 28.6 °C 17.8 °C 1016.5 hPa Calm   8.0 km/h 52 % 0.0 mm
18:37 28.7 °C 17.9 °C 1016.5 hPa East 3.2 km/h 8.0 km/h 52 % 0.0 mm
18:42 28.6 °C 17.8 °C 1016.5 hPa ESE 3.2 km/h 6.4 km/h 52 % 0.0 mm
18:47 28.6 °C 17.5 °C 1016.1 hPa ENE 3.2 km/h 6.4 km/h 51 % 0.0 mm
18:52 28.6 °C 17.5 °C 1016.1 hPa Calm   4.8 km/h 51 % 0.0 mm
18:57 28.7 °C 17.6 °C 1016.1 hPa Calm   4.8 km/h 51 % 0.0 mm
19:07 28.7 °C 17.2 °C 1016.1 hPa ESE 4.8 km/h 4.8 km/h 50 % 0.0 mm
19:12 28.5 °C 17.4 °C 1016.1 hPa East 3.2 km/h 4.8 km/h 51 % 0.0 mm
19:17 28.4 °C 17.6 °C 1016.1 hPa Calm   8.0 km/h 52 % 0.0 mm
19:22 28.6 °C 17.8 °C 1016.1 hPa SE 3.2 km/h 8.0 km/h 52 % 0.0 mm
19:32 28.7 °C 17.9 °C 1016.1 hPa ESE 3.2 km/h 4.8 km/h 52 % 0.0 mm
19:37 28.4 °C 18.2 °C 1016.1 hPa East 1.6 km/h 6.4 km/h 54 % 0.0 mm
19:42 28.2 °C 18.6 °C 1016.1 hPa ENE 3.2 km/h 6.4 km/h 56 % 0.0 mm
19:47 28.1 °C 18.8 °C 1016.1 hPa East 3.2 km/h 8.0 km/h 57 % 0.0 mm
19:52 27.9 °C 18.9 °C 1016.1 hPa Calm   8.0 km/h 58 % 0.0 mm
19:57 27.8 °C 19.1 °C 1016.1 hPa Calm   8.0 km/h 59 % 0.0 mm
20:02 27.6 °C 18.9 °C 1016.1 hPa ENE 3.2 km/h 8.0 km/h 59 % 0.0 mm
20:07 27.4 °C 18.9 °C 1016.1 hPa ENE 3.2 km/h 4.8 km/h 60 % 0.0 mm
20:12 27.3 °C 19.1 °C 1016.1 hPa ENE 1.6 km/h 4.8 km/h 61 % 0.0 mm
20:17 27.1 °C 19.2 °C 1016.1 hPa ENE 1.6 km/h 4.8 km/h 62 % 0.0 mm
20:22 26.8 °C 18.9 °C 1016.1 hPa East 1.6 km/h 4.8 km/h 62 % 0.0 mm
20:27 26.7 °C 19.1 °C 1016.1 hPa ENE 3.2 km/h 6.4 km/h 63 % 0.0 mm
20:32 26.5 °C 19.1 °C 1016.1 hPa ENE 3.2 km/h 6.4 km/h 64 % 0.0 mm
20:42 26.1 °C 19.0 °C 1016.1 hPa NE 3.2 km/h 6.4 km/h 65 % 0.0 mm
20:47 25.9 °C 19.1 °C 1016.1 hPa NE 3.2 km/h 3.2 km/h 66 % 0.0 mm
20:52 25.7 °C 18.9 °C 1016.1 hPa NE 3.2 km/h 3.2 km/h 66 % 0.0 mm
20:57 25.5 °C 18.9 °C 1016.1 hPa NNE 3.2 km/h 4.8 km/h 67 % 0.0 mm
21:02 25.2 °C 19.1 °C 1016.5 hPa NE 4.8 km/h 4.8 km/h 69 % 0.0 mm
21:12 24.5 °C 18.7 °C 1016.5 hPa NNE 6.4 km/h 6.4 km/h 70 % 0.0 mm
21:22 24.2 °C 18.6 °C 1016.5 hPa NNE 4.8 km/h 9.7 km/h 71 % 0.0 mm
21:32 23.9 °C 18.5 °C 1016.5 hPa NE 1.6 km/h 12.9 km/h 72 % 0.0 mm
21:37 23.8 °C 18.7 °C 1016.8 hPa NE 8.0 km/h 16.1 km/h 73 % 0.0 mm
21:42 23.8 °C 18.7 °C 1016.8 hPa NE 8.0 km/h 16.1 km/h 73 % 0.0 mm
21:47 23.8 °C 18.7 °C 1016.8 hPa NE 4.8 km/h 14.5 km/h 73 % 0.0 mm
21:52 23.7 °C 18.6 °C 1016.8 hPa NNE 3.2 km/h 14.5 km/h 73 % 0.0 mm
21:57 23.6 °C 18.5 °C 1016.8 hPa NNE 6.4 km/h 12.9 km/h 73 % 0.0 mm
22:07 23.3 °C 18.4 °C 1017.2 hPa NE 6.4 km/h 11.3 km/h 74 % 0.0 mm
22:12 23.3 °C 18.4 °C 1017.2 hPa NNE 6.4 km/h 11.3 km/h 74 % 0.0 mm
22:17 23.2 °C 18.3 °C 1017.2 hPa NE 4.8 km/h 12.9 km/h 74 % 0.0 mm
22:22 23.2 °C 18.3 °C 1017.2 hPa NNE 9.7 km/h 12.9 km/h 74 % 0.0 mm
22:27 23.2 °C 18.1 °C 1017.2 hPa NNE 6.4 km/h 16.1 km/h 73 % 0.0 mm
22:32 23.1 °C 18.0 °C 1017.2 hPa ENE 6.4 km/h 16.1 km/h 73 % 0.0 mm
22:42 22.9 °C 18.0 °C 1017.2 hPa ENE 3.2 km/h 16.1 km/h 74 % 0.0 mm
22:52 22.8 °C 17.7 °C 1017.2 hPa ENE 11.3 km/h 16.1 km/h 73 % 0.0 mm
22:57 22.7 °C 17.8 °C 1017.2 hPa NE 9.7 km/h 22.5 km/h 74 % 0.0 mm
23:02 22.7 °C 17.8 °C 1017.2 hPa ENE 8.0 km/h 22.5 km/h 74 % 0.0 mm
23:07 22.6 °C 17.7 °C 1017.2 hPa NE 11.3 km/h 16.1 km/h 74 % 0.0 mm
23:12 22.6 °C 17.7 °C 1017.2 hPa NNE 4.8 km/h 16.1 km/h 74 % 0.0 mm
23:17 22.4 °C 17.5 °C 1017.2 hPa NE 11.3 km/h 19.3 km/h 74 % 0.0 mm
23:22 22.3 °C 17.4 °C 1017.2 hPa NNE 14.5 km/h 19.3 km/h 74 % 0.0 mm
23:32 22.2 °C 17.3 °C 1017.2 hPa ENE 8.0 km/h 17.7 km/h 74 % 0.0 mm
23:37 22.1 °C 17.5 °C 1016.8 hPa NE 9.7 km/h 17.7 km/h 75 % 0.0 mm
23:42 22.1 °C 17.5 °C 1016.8 hPa NNE 3.2 km/h 17.7 km/h 75 % 0.0 mm
23:52 21.9 °C 17.3 °C 1016.8 hPa NE 9.7 km/h 16.1 km/h 75 % 0.0 mm
23:57 21.8 °C 17.2 °C 1016.8 hPa NE 11.3 km/h 16.1 km/h 75 % 0.0 mm
Meteo18
Compliments of Weather Underground - 4 mb

Script developed by  Jim McMurry - jmcmurry@mwt.net Adapted for the template by  Wim van der Kuil - Leuven-Template.eu

You find our weather info also at:

European Weather Network

Weather Underground

Equipment we use:

Weather-station
Davis Vue

Weather-program
Meteohub

Weather-server
Raspberry PI 2 B+

Provider
1 and 1

Davis Vue

Meteohub

Raspberry PI 2 B+

1 and 1